createdAt,value
2023-04-06T00:01:14.076Z,71.95
2023-04-06T00:03:41.124Z,70.72
2023-04-06T00:06:08.218Z,70.55
2023-04-06T00:09:27.825Z,70.22
2023-04-06T00:11:54.847Z,72.22
2023-04-06T00:14:21.997Z,71.96
2023-04-06T00:16:49.129Z,72.02
2023-04-06T00:19:16.309Z,71.59
2023-04-06T00:21:43.440Z,71.45
2023-04-06T00:24:10.420Z,71.16
2023-04-06T00:26:39.040Z,70.31
2023-04-06T00:29:06.176Z,70.67
2023-04-06T00:31:33.190Z,71.92
2023-04-06T00:34:00.207Z,73.44
2023-04-06T00:36:27.447Z,73.62
2023-04-06T00:38:54.484Z,72.42
2023-04-06T00:41:21.523Z,72.70
2023-04-06T00:44:16.133Z,72.60
2023-04-06T00:46:43.744Z,72.80
2023-04-06T00:49:10.775Z,73.24
2023-04-06T00:51:37.938Z,72.94
2023-04-06T00:54:05.374Z,72.71
2023-04-06T00:56:34.332Z,72.57
2023-04-06T00:59:01.565Z,73.24
2023-04-06T01:01:30.596Z,73.34
2023-04-06T01:04:03.052Z,71.81
2023-04-06T01:06:33.224Z,70.98
2023-04-06T01:09:02.734Z,71.19
2023-04-06T01:11:30.362Z,71.80
2023-04-06T01:13:57.712Z,71.95
2023-04-06T01:16:28.037Z,71.82
2023-04-06T01:19:13.210Z,71.60
2023-04-06T01:21:45.220Z,71.46
2023-04-06T01:24:34.300Z,72.23
2023-04-06T01:27:07.549Z,72.55
2023-04-06T01:29:54.680Z,72.97
2023-04-06T01:32:51.365Z,73.83
2023-04-06T01:35:29.224Z,73.15
2023-04-06T01:38:10.321Z,73.14
2023-04-06T01:40:39.448Z,75.30
2023-04-06T01:43:06.815Z,74.89
2023-04-06T01:45:41.077Z,74.11
2023-04-06T01:48:15.753Z,73.87
2023-04-06T01:50:42.787Z,73.57
2023-04-06T01:53:12.556Z,72.80
2023-04-06T01:55:43.285Z,73.09
2023-04-06T01:58:36.230Z,72.29
2023-04-06T02:01:04.275Z,72.20
2023-04-06T02:03:41.706Z,72.02
2023-04-06T02:06:11.374Z,71.97
2023-04-06T02:08:41.085Z,71.76
2023-04-06T02:11:09.550Z,71.80
2023-04-06T02:13:49.637Z,73.13
2023-04-06T02:16:17.373Z,72.54
2023-04-06T02:18:46.375Z,72.60
2023-04-06T02:21:13.255Z,72.39
2023-04-06T02:23:40.326Z,72.45
2023-04-06T02:26:08.871Z,73.49
2023-04-06T02:28:35.861Z,74.96
2023-04-06T02:31:02.864Z,74.16
2023-04-06T02:33:30.359Z,73.70
2023-04-06T02:35:57.564Z,74.30
2023-04-06T02:38:24.700Z,74.13
2023-04-06T02:40:54.759Z,73.79
2023-04-06T02:43:26.232Z,73.40
2023-04-06T02:46:02.858Z,74.85
2023-04-06T02:48:33.446Z,75.98
2023-04-06T02:51:00.474Z,75.94
2023-04-06T02:53:27.937Z,75.05
2023-04-06T02:55:55.044Z,75.46
2023-04-06T02:58:24.137Z,75.31
2023-04-06T03:01:46.638Z,75.18
2023-04-06T03:04:13.711Z,75.08
2023-04-06T03:14:48.614Z,74.86
2023-04-06T03:17:17.596Z,76.04
2023-04-06T03:19:45.092Z,76.24
2023-04-06T03:23:03.032Z,76.70
2023-04-06T03:25:35.661Z,76.75
2023-04-06T03:28:05.849Z,77.26
2023-04-06T03:30:38.193Z,76.87
2023-04-06T03:33:06.622Z,76.49
2023-04-06T03:35:40.419Z,75.96
2023-04-06T03:38:08.522Z,74.90
2023-04-06T03:40:36.357Z,73.73
2023-04-06T03:43:03.567Z,72.51
2023-04-06T03:45:31.165Z,71.55
2023-04-06T03:47:58.404Z,71.64
2023-04-06T03:50:27.162Z,72.00
2023-04-06T03:52:54.678Z,72.60
2023-04-06T03:55:21.715Z,74.17
2023-04-06T03:57:48.774Z,74.76
2023-04-06T04:00:16.630Z,74.65
2023-04-06T04:02:43.701Z,74.24
2023-04-06T04:05:10.954Z,74.33
2023-04-06T04:07:39.388Z,73.61
2023-04-06T04:10:11.422Z,73.58
2023-04-06T04:12:39.364Z,73.83
2023-04-06T04:15:07.642Z,74.09
2023-04-06T04:17:34.746Z,74.58
2023-04-06T04:20:01.905Z,75.10
2023-04-06T04:22:29.720Z,75.50
2023-04-06T04:24:58.108Z,75.51
2023-04-06T04:27:26.073Z,75.78
2023-04-06T04:29:53.567Z,74.91
2023-04-06T04:32:21.082Z,74.18
2023-04-06T04:34:48.211Z,74.29
2023-04-06T04:37:26.950Z,74.24
2023-04-06T04:39:57.753Z,74.40
2023-04-06T04:42:24.997Z,74.57
2023-04-06T04:44:55.197Z,74.45
2023-04-06T04:47:33.439Z,74.87
2023-04-06T04:50:01.201Z,75.07
2023-04-06T04:52:28.485Z,75.87
2023-04-06T04:55:03.573Z,75.71
2023-04-06T04:57:31.484Z,75.27
2023-04-06T04:59:58.744Z,74.72
2023-04-06T05:02:50.976Z,74.81
2023-04-06T05:05:27.321Z,74.55
2023-04-06T05:07:54.880Z,74.09
2023-04-06T05:10:33.426Z,73.67
2023-04-06T05:13:02.734Z,72.73
2023-04-06T05:15:29.875Z,73.36
2023-04-06T05:18:03.058Z,72.58
2023-04-06T05:20:34.838Z,71.07
2023-04-06T05:23:02.287Z,69.76
2023-04-06T05:25:31.464Z,67.47
2023-04-06T05:28:06.795Z,63.96
2023-04-06T05:30:37.419Z,65.03
2023-04-06T05:33:05.168Z,64.40
2023-04-06T05:35:59.368Z,61.29
2023-04-06T05:38:27.770Z,58.88
2023-04-06T05:40:57.764Z,56.66
2023-04-06T05:43:31.299Z,54.79
2023-04-06T05:46:00.230Z,52.60
2023-04-06T05:48:27.487Z,51.37
2023-04-06T05:50:54.803Z,50.49
2023-04-06T05:53:28.380Z,49.20
2023-04-06T05:56:01.947Z,48.02
2023-04-06T05:58:31.135Z,47.04
2023-04-06T06:00:59.254Z,47.15
2023-04-06T06:03:28.193Z,45.69
2023-04-06T06:06:01.355Z,45.49
2023-04-06T06:08:34.782Z,44.97
2023-04-06T06:11:04.499Z,44.02
2023-04-06T06:13:33.697Z,42.54
2023-04-06T06:16:01.576Z,41.39
2023-04-06T06:18:28.631Z,40.94
2023-04-06T06:22:13.677Z,39.17
2023-04-06T06:24:43.675Z,38.38
2023-04-06T06:27:12.470Z,38.60
2023-04-06T06:29:41.092Z,38.73
2023-04-06T06:32:08.156Z,38.09
2023-04-06T06:34:36.362Z,38.06
2023-04-06T06:37:06.689Z,37.28
2023-04-06T06:39:35.279Z,36.34
2023-04-06T06:42:02.731Z,36.13
2023-04-06T06:44:50.841Z,36.01
2023-04-06T06:47:18.829Z,35.83
2023-04-06T06:49:46.270Z,34.54
2023-04-06T06:52:14.769Z,34.15
2023-04-06T06:54:42.869Z,32.83
2023-04-06T06:57:13.693Z,32.07
2023-04-06T06:59:43.245Z,31.87
2023-04-06T07:02:11.888Z,30.49
2023-04-06T07:04:39.013Z,30.86
2023-04-06T07:07:06.066Z,30.02
2023-04-06T07:09:33.226Z,30.84
2023-04-06T07:12:00.514Z,29.58
2023-04-06T07:14:28.302Z,29.09
2023-04-06T07:16:55.852Z,32.09
2023-04-06T07:19:26.093Z,33.63
2023-04-06T07:21:53.184Z,31.77
2023-04-06T07:24:20.449Z,32.98
2023-04-06T07:26:47.865Z,31.74
2023-04-06T07:29:15.106Z,32.97
2023-04-06T07:31:42.585Z,33.07
2023-04-06T07:34:10.054Z,31.13
2023-04-06T07:36:41.120Z,32.74
2023-04-06T07:39:08.898Z,33.47
2023-04-06T07:41:36.804Z,28.45
2023-04-06T07:44:09.027Z,27.60
2023-04-06T07:46:40.571Z,26.08
2023-04-06T07:49:07.737Z,25.91
2023-04-06T07:51:37.277Z,25.44
2023-04-06T07:54:07.523Z,27.50
2023-04-06T07:56:34.858Z,27.76
2023-04-06T07:59:02.049Z,27.30
2023-04-06T08:01:30.409Z,26.32
2023-04-06T08:03:58.480Z,26.56
2023-04-06T08:06:26.040Z,28.23
2023-04-06T08:08:53.003Z,29.61
2023-04-06T08:11:21.470Z,30.90
2023-04-06T08:13:48.518Z,30.20
2023-04-06T08:16:15.496Z,31.42
2023-04-06T08:18:42.538Z,30.26
2023-04-06T08:21:09.786Z,29.36
2023-04-06T08:23:37.006Z,29.21
2023-04-06T08:26:04.051Z,31.27
2023-04-06T08:28:32.971Z,29.33
2023-04-06T08:31:00.075Z,26.00
2023-04-06T08:33:27.187Z,26.06
2023-04-06T08:35:54.922Z,24.85
2023-04-06T08:38:21.867Z,25.52
2023-04-06T08:40:49.523Z,27.71
2023-04-06T08:43:23.520Z,26.23
2023-04-06T08:45:52.204Z,27.65
2023-04-06T08:48:21.187Z,27.43
2023-04-06T08:50:48.349Z,26.73
2023-04-06T08:53:17.696Z,26.82
2023-04-06T08:55:47.673Z,26.57
2023-04-06T08:58:21.516Z,25.65
2023-04-06T09:01:15.551Z,25.94
2023-04-06T09:03:44.864Z,25.63
2023-04-06T09:06:14.587Z,26.99
2023-04-06T09:08:42.653Z,29.05
2023-04-06T09:11:10.187Z,29.78
2023-04-06T09:13:49.579Z,29.33
2023-04-06T09:16:28.635Z,28.37
2023-04-06T09:19:05.247Z,28.87
2023-04-06T09:21:32.336Z,26.99
2023-04-06T09:24:00.550Z,27.70
2023-04-06T09:26:29.092Z,26.37
2023-04-06T09:28:59.229Z,26.94
2023-04-06T09:31:30.389Z,27.27
2023-04-06T09:33:58.343Z,28.24
2023-04-06T09:36:33.126Z,29.58
2023-04-06T09:39:03.448Z,28.99
2023-04-06T09:41:33.054Z,30.78
2023-04-06T09:44:04.439Z,32.21
2023-04-06T09:46:50.766Z,31.93
2023-04-06T09:53:42.756Z,31.46
2023-04-06T09:56:21.292Z,28.29
2023-04-06T09:59:02.630Z,28.67
2023-04-06T10:01:59.315Z,28.20
2023-04-06T10:04:40.318Z,30.39
2023-04-06T10:07:10.113Z,27.71
2023-04-06T10:09:39.071Z,27.09
2023-04-06T10:12:07.552Z,27.41
2023-04-06T10:14:35.860Z,25.56
2023-04-06T10:17:06.037Z,22.85
2023-04-06T10:19:50.757Z,23.86
2023-04-06T10:22:34.758Z,22.88
2023-04-06T10:25:01.935Z,24.59
2023-04-06T10:27:29.987Z,24.06
2023-04-06T10:30:04.569Z,23.54
2023-04-06T10:32:36.395Z,25.58
2023-04-06T10:35:09.254Z,24.92
2023-04-06T10:37:54.034Z,24.85
2023-04-06T10:40:25.982Z,23.53
2023-04-06T10:42:56.455Z,24.68
2023-04-06T10:45:26.015Z,25.37
2023-04-06T10:47:55.862Z,22.93
2023-04-06T10:50:23.967Z,22.17
2023-04-06T10:53:02.284Z,20.25
2023-04-06T10:55:31.731Z,19.49
2023-04-06T10:57:58.949Z,21.99
2023-04-06T11:00:30.983Z,21.84
2023-04-06T11:03:08.375Z,24.50
2023-04-06T11:05:47.706Z,22.57
2023-04-06T11:08:25.508Z,21.01
2023-04-06T11:10:53.266Z,20.87
2023-04-06T11:13:21.080Z,19.59
2023-04-06T11:15:48.251Z,19.99
2023-04-06T11:18:18.782Z,21.21
2023-04-06T11:20:49.121Z,23.13
2023-04-06T11:23:24.482Z,24.95
2023-04-06T11:25:53.258Z,25.47
2023-04-06T11:28:21.077Z,26.99
2023-04-06T11:30:48.240Z,26.54
2023-04-06T11:33:22.857Z,25.73
2023-04-06T11:35:50.061Z,25.64
2023-04-06T11:38:19.575Z,25.69
2023-04-06T11:40:46.828Z,23.05
2023-04-06T11:43:14.062Z,21.43
2023-04-06T11:45:43.731Z,21.07
2023-04-06T11:48:20.106Z,21.23
2023-04-06T11:50:49.063Z,20.17
2023-04-06T11:53:16.098Z,21.64
2023-04-06T11:55:43.015Z,21.31
2023-04-06T11:58:11.313Z,21.23
2023-04-06T12:00:38.526Z,21.95
2023-04-06T12:03:06.162Z,24.25
2023-04-06T12:05:34.847Z,24.98
2023-04-06T12:08:03.907Z,23.80
2023-04-06T12:10:31.198Z,23.76
2023-04-06T12:12:58.220Z,23.59
2023-04-06T12:15:26.365Z,24.02
2023-04-06T12:17:53.505Z,25.03
2023-04-06T12:20:26.542Z,26.83
2023-04-06T12:22:55.089Z,27.24
2023-04-06T12:25:35.955Z,27.93
2023-04-06T12:28:03.142Z,27.90
2023-04-06T12:30:30.130Z,26.47
2023-04-06T12:32:57.386Z,27.35
2023-04-06T12:35:24.546Z,27.94
2023-04-06T12:38:42.644Z,26.63
2023-04-06T12:41:11.192Z,26.64
2023-04-06T12:43:38.331Z,25.84
2023-04-06T12:46:05.519Z,25.29
2023-04-06T12:48:33.126Z,26.88
2023-04-06T12:51:02.965Z,27.54
2023-04-06T12:53:30.087Z,27.31
2023-04-06T12:55:58.404Z,28.00
2023-04-06T12:58:26.945Z,26.06
2023-04-06T13:00:54.532Z,27.98
2023-04-06T13:03:22.559Z,28.27
2023-04-06T13:05:51.467Z,28.29
2023-04-06T13:08:20.638Z,28.15
2023-04-06T13:10:50.362Z,27.60
2023-04-06T13:13:17.513Z,28.48
2023-04-06T13:15:45.921Z,28.00
2023-04-06T13:18:12.944Z,27.70
2023-04-06T13:20:39.891Z,27.45
2023-04-06T13:23:07.522Z,27.64
2023-04-06T13:25:34.793Z,27.57
2023-04-06T13:28:02.104Z,28.28
2023-04-06T13:30:29.253Z,28.51
2023-04-06T13:32:57.916Z,28.58
2023-04-06T13:35:25.242Z,29.23
2023-04-06T13:37:52.303Z,28.27
2023-04-06T13:40:19.549Z,27.61
2023-04-06T13:43:26.073Z,29.70
2023-04-06T13:45:56.106Z,28.56
2023-04-06T13:48:24.810Z,28.67
2023-04-06T13:50:51.865Z,28.81
2023-04-06T13:53:19.073Z,29.58
2023-04-06T13:55:54.275Z,30.21
2023-04-06T13:58:21.147Z,28.98
2023-04-06T14:00:48.120Z,28.49
2023-04-06T14:03:15.216Z,28.47
2023-04-06T14:05:43.819Z,28.50
2023-04-06T14:08:11.473Z,28.20
2023-04-06T14:10:40.091Z,28.21
2023-04-06T14:13:07.593Z,27.24
2023-04-06T14:15:35.545Z,27.66
2023-04-06T14:18:02.793Z,27.68
2023-04-06T14:20:32.117Z,27.49
2023-04-06T14:23:02.260Z,27.99
2023-04-06T14:25:29.523Z,28.48
2023-04-06T14:27:56.389Z,27.46
2023-04-06T14:30:24.074Z,27.46
2023-04-06T14:32:51.094Z,28.62
2023-04-06T14:35:18.360Z,27.81
2023-04-06T14:37:45.427Z,26.70
2023-04-06T14:40:13.903Z,26.43
2023-04-06T14:42:40.978Z,26.89
2023-04-06T14:45:09.019Z,28.41
2023-04-06T14:47:36.272Z,27.84
2023-04-06T14:50:04.212Z,28.33
2023-04-06T14:52:32.680Z,27.88
2023-04-06T14:55:00.068Z,27.11
2023-04-06T14:57:28.366Z,27.42
2023-04-06T14:59:55.299Z,28.34
2023-04-06T15:02:22.453Z,27.70
2023-04-06T15:04:49.804Z,26.94
2023-04-06T15:07:16.710Z,27.33
2023-04-06T15:09:44.247Z,27.87
2023-04-06T15:12:11.245Z,28.83
2023-04-06T15:14:40.710Z,27.49
2023-04-06T15:17:07.600Z,27.51
2023-04-06T15:19:34.809Z,27.72
2023-04-06T15:22:01.739Z,28.80
2023-04-06T15:24:28.707Z,29.01
2023-04-06T15:26:55.575Z,27.92
2023-04-06T15:29:22.405Z,28.09
2023-04-06T15:31:50.773Z,27.92
2023-04-06T15:34:17.777Z,28.56
2023-04-06T15:36:44.978Z,28.46
2023-04-06T15:39:12.389Z,29.81
2023-04-06T15:41:39.527Z,29.35
2023-04-06T15:44:06.726Z,28.60
2023-04-06T15:46:33.547Z,28.79
2023-04-06T15:49:02.240Z,28.76
2023-04-06T15:51:29.278Z,29.39
2023-04-06T15:53:56.079Z,29.37
2023-04-06T15:56:22.948Z,28.41
2023-04-06T15:58:50.045Z,27.88
2023-04-06T16:01:19.279Z,28.12
2023-04-06T16:03:47.139Z,28.16
2023-04-06T16:06:15.630Z,28.78
2023-04-06T16:08:42.720Z,28.30
2023-04-06T16:11:10.343Z,28.76
2023-04-06T16:13:37.396Z,29.05
2023-04-06T16:16:05.123Z,28.82
2023-04-06T16:18:34.945Z,28.94
2023-04-06T16:21:03.742Z,28.99
2023-04-06T16:23:32.271Z,29.71
2023-04-06T16:25:59.176Z,30.16
2023-04-06T16:28:26.265Z,29.82
2023-04-06T16:30:53.291Z,29.86
2023-04-06T16:33:20.221Z,30.77
2023-04-06T16:35:48.182Z,34.84
2023-04-06T16:38:16.385Z,31.89
2023-04-06T16:40:44.690Z,32.35
2023-04-06T16:43:11.670Z,31.55
2023-04-06T16:45:39.392Z,32.00
2023-04-06T16:48:06.520Z,31.40
2023-04-06T16:50:35.621Z,30.97
2023-04-06T16:53:02.779Z,31.50
2023-04-06T16:55:29.640Z,30.42
2023-04-06T16:57:58.098Z,30.36
2023-04-06T17:00:25.133Z,30.71
2023-04-06T17:02:52.062Z,30.30
2023-04-06T17:05:19.236Z,30.53
2023-04-06T17:07:46.153Z,30.52
2023-04-06T17:11:04.969Z,30.41
2023-04-06T17:13:37.080Z,30.33
2023-04-06T17:16:18.478Z,30.23
2023-04-06T17:18:48.465Z,29.61
2023-04-06T17:21:15.841Z,29.66
2023-04-06T17:23:43.329Z,30.11
2023-04-06T17:26:10.448Z,29.87
2023-04-06T17:28:38.997Z,30.36
2023-04-06T17:31:09.279Z,30.58
2023-04-06T17:33:38.148Z,30.40
2023-04-06T17:36:07.256Z,30.59
2023-04-06T17:38:37.014Z,30.51
2023-04-06T17:41:04.208Z,30.32
2023-04-06T17:43:31.997Z,30.49
2023-04-06T17:46:00.524Z,30.75
2023-04-06T17:48:28.405Z,32.05
2023-04-06T17:50:55.693Z,33.04
2023-04-06T17:53:23.265Z,32.83
2023-04-06T17:55:50.306Z,33.77
2023-04-06T17:58:17.739Z,34.31
2023-04-06T18:00:44.895Z,33.49
2023-04-06T18:03:13.546Z,33.25
2023-04-06T18:05:40.891Z,33.24
2023-04-06T18:08:08.100Z,33.94
2023-04-06T18:10:38.149Z,36.57
2023-04-06T18:13:05.269Z,37.11
2023-04-06T18:15:35.147Z,36.81
2023-04-06T18:18:02.201Z,36.76
2023-04-06T18:20:31.072Z,36.93
2023-04-06T18:22:58.482Z,37.53
2023-04-06T18:25:25.956Z,37.03
2023-04-06T18:27:53.264Z,36.16
2023-04-06T18:30:20.927Z,35.72
2023-04-06T18:32:49.244Z,35.64
2023-04-06T18:35:16.697Z,35.60
2023-04-06T18:37:45.259Z,35.92
2023-04-06T18:40:31.061Z,36.00
2023-04-06T18:43:00.117Z,36.02
2023-04-06T18:45:27.858Z,36.27
2023-04-06T18:47:56.409Z,36.21
2023-04-06T18:50:23.858Z,36.15
2023-04-06T18:52:53.070Z,36.74
2023-04-06T18:55:20.438Z,36.41
2023-04-06T18:57:48.028Z,37.43
2023-04-06T19:00:16.352Z,37.04
2023-04-06T19:02:43.768Z,36.63
2023-04-06T19:05:12.069Z,37.06
2023-04-06T19:07:39.981Z,36.98
2023-04-06T19:10:10.670Z,37.24
2023-04-06T19:12:39.619Z,37.48
2023-04-06T19:15:09.127Z,37.37
2023-04-06T19:17:36.933Z,37.71
2023-04-06T19:20:05.148Z,38.53
2023-04-06T19:22:35.330Z,38.93
2023-04-06T19:25:03.792Z,39.37
2023-04-06T19:27:32.675Z,40.32
2023-04-06T19:30:00.200Z,40.74
2023-04-06T19:32:27.402Z,40.54
2023-04-06T19:34:54.967Z,41.65
2023-04-06T19:37:22.171Z,41.56
2023-04-06T19:39:49.193Z,41.52
2023-04-06T19:42:16.172Z,41.40
2023-04-06T19:44:44.810Z,41.02
2023-04-06T19:47:12.044Z,39.19
2023-04-06T19:49:38.997Z,39.70
2023-04-06T19:52:06.286Z,39.60
2023-04-06T19:54:33.465Z,43.76
2023-04-06T19:57:00.385Z,40.57
2023-04-06T19:59:27.303Z,40.51
2023-04-06T20:01:56.287Z,41.11
2023-04-06T20:04:23.713Z,41.19
2023-04-06T20:06:51.364Z,41.69
2023-04-06T20:09:18.721Z,42.04
2023-04-06T20:11:45.679Z,41.99
2023-04-06T20:14:12.691Z,42.49
2023-04-06T20:16:39.671Z,42.94
2023-04-06T20:19:08.436Z,42.74
2023-04-06T20:21:36.800Z,43.56
2023-04-06T20:24:05.592Z,45.08
2023-04-06T20:26:32.502Z,43.94
2023-04-06T20:28:59.608Z,44.45
2023-04-06T20:31:26.878Z,45.13
2023-04-06T20:33:54.020Z,44.54
2023-04-06T20:36:22.395Z,43.93
2023-04-06T20:38:49.360Z,45.07
2023-04-06T20:41:16.310Z,45.10
2023-04-06T20:43:43.236Z,45.55
2023-04-06T20:46:16.598Z,45.19
2023-04-06T20:48:43.685Z,47.24
2023-04-06T20:51:18.607Z,47.52
2023-04-06T20:53:47.110Z,47.52
2023-04-06T20:56:14.080Z,47.88
2023-04-06T20:58:41.016Z,49.01
2023-04-06T21:01:13.125Z,50.16
2023-04-06T21:03:41.231Z,50.73
2023-04-06T21:06:09.782Z,51.60
2023-04-06T21:08:37.460Z,51.96
2023-04-06T21:11:06.358Z,52.85
2023-04-06T21:13:34.360Z,52.36
2023-04-06T21:16:01.717Z,53.56
2023-04-06T21:18:29.958Z,54.33
2023-04-06T21:20:59.032Z,54.07
2023-04-06T21:23:25.914Z,56.06
2023-04-06T21:25:53.008Z,55.86
2023-04-06T21:28:21.268Z,55.42
2023-04-06T21:30:48.405Z,55.96
2023-04-06T21:33:15.968Z,56.06
2023-04-06T21:35:42.820Z,56.23
2023-04-06T21:38:10.455Z,56.90
2023-04-06T21:40:37.616Z,58.64
2023-04-06T21:43:04.979Z,59.56
2023-04-06T21:45:33.454Z,60.31
2023-04-06T21:48:00.857Z,59.46
2023-04-06T21:50:27.946Z,61.14
2023-04-06T21:52:55.050Z,61.95
2023-04-06T21:55:22.183Z,62.96
2023-04-06T21:57:49.094Z,64.57
2023-04-06T22:00:18.438Z,65.08
2023-04-06T22:02:46.861Z,64.94
2023-04-06T22:05:14.276Z,65.51
2023-04-06T22:07:41.316Z,65.52
2023-04-06T22:10:08.921Z,66.56
2023-04-06T22:12:36.586Z,67.01
2023-04-06T22:15:04.193Z,67.17
2023-04-06T22:46:00.050Z,78.92
2023-04-06T22:48:26.986Z,80.07
2023-04-06T22:50:54.420Z,80.34
2023-04-06T22:53:21.546Z,80.86
2023-04-06T22:55:48.470Z,82.10
2023-04-06T22:58:15.371Z,82.38
2023-04-06T23:00:42.499Z,83.05
2023-04-06T23:03:11.607Z,83.83
2023-04-06T23:05:38.861Z,81.82
2023-04-06T23:08:05.872Z,82.35
2023-04-06T23:10:33.198Z,82.27
2023-04-06T23:13:00.121Z,83.86
2023-04-06T23:15:27.103Z,83.86
2023-04-06T23:17:53.984Z,84.20
2023-04-06T23:20:22.709Z,84.61
2023-04-06T23:27:03.542Z,83.86
2023-04-06T23:29:30.767Z,84.40
2023-04-06T23:32:05.859Z,84.73
2023-04-06T23:34:34.648Z,85.10
2023-04-06T23:37:05.567Z,84.21
2023-04-06T23:39:32.566Z,85.35
2023-04-06T23:41:59.781Z,84.77
2023-04-06T23:44:29.484Z,85.15
2023-04-06T23:46:56.703Z,84.87
2023-04-06T23:49:23.530Z,84.62
2023-04-06T23:51:50.658Z,85.54
2023-04-06T23:54:18.916Z,84.75
2023-04-06T23:56:45.806Z,85.31
2023-04-06T23:59:12.780Z,85.06
